createdAt,value
2022-12-04T00:04:19.869Z,50.00
2022-12-04T00:09:25.940Z,50.00
2022-12-04T00:14:32.102Z,41.33
2022-12-04T00:19:38.202Z,38.33
2022-12-04T00:24:43.281Z,33.00
2022-12-04T00:29:49.812Z,39.50
2022-12-04T00:34:56.484Z,106.50
2022-12-04T00:40:01.785Z,45.33
2022-12-04T00:45:08.543Z,37.67
2022-12-04T00:50:16.126Z,38.00
2022-12-04T00:55:43.803Z,19.00
2022-12-04T01:00:50.662Z,14.50
2022-12-04T01:12:56.860Z,22.00
2022-12-04T01:18:22.711Z,19.00
2022-12-04T01:23:33.733Z,25.00
2022-12-04T01:28:42.181Z,26.50
2022-12-04T01:33:49.018Z,17.50
2022-12-04T01:38:54.895Z,36.75
2022-12-04T01:44:22.625Z,29.25
2022-12-04T01:49:39.951Z,29.00
2022-12-04T01:54:50.427Z,32.67
2022-12-04T01:59:59.615Z,26.50
2022-12-04T02:10:13.993Z,42.75
2022-12-04T02:15:24.787Z,34.33
2022-12-04T02:20:42.585Z,30.00
2022-12-04T02:26:16.245Z,49.00
2022-12-04T02:31:24.675Z,30.50
2022-12-04T02:36:36.863Z,16.50
2022-12-04T02:42:02.500Z,12.00
2022-12-04T02:47:14.018Z,16.25
2022-12-04T02:52:25.202Z,26.00
2022-12-04T02:57:36.422Z,15.67
2022-12-04T03:03:06.065Z,24.75
2022-12-04T03:08:18.748Z,21.33
2022-12-04T03:13:43.170Z,14.00
2022-12-04T03:19:12.164Z,14.00
2022-12-04T03:24:22.600Z,19.75
2022-12-04T03:29:55.937Z,9.00
2022-12-04T03:35:35.829Z,8.50
2022-12-04T03:41:07.682Z,7.33
2022-12-04T03:46:39.559Z,11.33
2022-12-04T03:52:44.270Z,17.67
2022-12-04T03:57:54.393Z,10.00
2022-12-04T04:03:11.449Z,8.50
2022-12-04T04:14:18.769Z,20.00
2022-12-04T04:19:56.024Z,13.00
2022-12-04T04:25:17.119Z,7.33
2022-12-04T04:30:22.924Z,14.00
2022-12-04T04:35:36.115Z,19.50
2022-12-04T04:40:58.185Z,8.67
2022-12-04T04:46:18.054Z,14.00
2022-12-04T04:51:25.117Z,16.50
2022-12-04T04:56:35.514Z,8.00
2022-12-04T05:01:43.651Z,6.00
2022-12-04T05:06:50.224Z,6.00
2022-12-04T05:11:57.473Z,8.00
2022-12-04T05:17:10.894Z,10.50
2022-12-04T05:22:20.357Z,20.00
2022-12-04T05:27:26.784Z,14.33
2022-12-04T05:32:34.855Z,15.00
2022-12-04T05:37:43.562Z,16.50
2022-12-04T05:42:50.204Z,14.67
2022-12-04T05:47:56.722Z,15.50
2022-12-04T05:53:03.144Z,14.00
2022-12-04T05:58:09.893Z,26.75
2022-12-04T06:03:24.956Z,28.33
2022-12-04T06:08:30.522Z,9.33
2022-12-04T06:13:37.477Z,4.00
2022-12-04T06:18:43.175Z,15.75
2022-12-04T06:23:50.540Z,28.00
2022-12-04T06:29:03.909Z,14.75
2022-12-04T06:34:11.260Z,17.25
2022-12-04T06:39:19.168Z,16.00
2022-12-04T06:44:25.124Z,23.25
2022-12-04T06:49:32.266Z,65.25
2022-12-04T06:54:40.202Z,21.00
2022-12-04T06:59:45.650Z,8.00
2022-12-04T07:04:51.001Z,13.33
2022-12-04T07:09:57.874Z,12.50
2022-12-04T07:15:04.372Z,23.50
2022-12-04T07:20:12.998Z,18.25
2022-12-04T07:25:18.643Z,15.00
2022-12-04T07:35:30.567Z,13.50
2022-12-04T07:40:35.832Z,16.25
2022-12-04T07:45:43.991Z,22.33
2022-12-04T07:50:50.738Z,22.33
2022-12-04T07:55:58.619Z,22.75
2022-12-04T08:01:17.785Z,15.00
2022-12-04T08:06:25.917Z,19.25
2022-12-04T08:11:33.406Z,22.25
2022-12-04T08:16:40.968Z,19.75
2022-12-04T08:21:47.128Z,13.00
2022-12-04T08:26:52.995Z,11.50
2022-12-04T08:31:58.379Z,45.00
2022-12-04T08:37:03.758Z,41.75
2022-12-04T08:42:08.926Z,33.00
2022-12-04T08:47:14.711Z,40.00
2022-12-04T08:52:21.599Z,94.67
2022-12-04T08:57:30.218Z,72.00
2022-12-04T09:02:35.688Z,50.00
2022-12-04T09:07:41.024Z,50.00
2022-12-04T09:12:47.536Z,79.33
2022-12-04T09:17:52.698Z,50.00
2022-12-04T09:23:04.822Z,50.00
2022-12-04T09:28:11.560Z,47.00
2022-12-04T09:33:16.713Z,43.25
2022-12-04T09:38:23.280Z,43.50
2022-12-04T09:43:47.928Z,38.33
2022-12-04T09:48:54.991Z,48.50
2022-12-04T09:54:16.403Z,46.75
2022-12-04T09:59:28.965Z,37.33
2022-12-04T10:04:35.169Z,38.67
2022-12-04T10:09:53.435Z,44.33
2022-12-04T10:15:07.031Z,50.00
2022-12-04T10:20:35.065Z,50.00
2022-12-04T10:30:49.555Z,39.33
2022-12-04T10:35:58.629Z,48.00
2022-12-04T10:41:28.504Z,183.33
2022-12-04T10:46:43.158Z,183.33
2022-12-04T10:51:52.170Z,226.67
2022-12-04T10:57:09.329Z,181.00
2022-12-04T11:02:23.118Z,161.50
2022-12-04T11:07:47.044Z,70.25
2022-12-04T11:13:05.291Z,50.00
2022-12-04T11:18:29.137Z,37.00
2022-12-04T11:23:51.287Z,41.00
2022-12-04T11:29:06.007Z,30.25
2022-12-04T11:34:22.067Z,32.75
2022-12-04T11:39:44.759Z,29.67
2022-12-04T11:45:03.662Z,40.67
2022-12-04T11:50:39.259Z,35.75
2022-12-04T11:56:08.307Z,30.33
2022-12-04T12:01:39.169Z,48.67
2022-12-04T12:07:21.027Z,114.50
2022-12-04T12:12:32.977Z,66.25
2022-12-04T12:18:10.341Z,36.50
2022-12-04T12:23:28.528Z,39.75
2022-12-04T12:29:03.326Z,44.33
2022-12-04T12:34:20.793Z,42.75
2022-12-04T12:39:41.555Z,37.33
2022-12-04T12:49:58.265Z,29.75
2022-12-04T12:55:29.884Z,33.25
2022-12-04T13:00:45.472Z,48.00
2022-12-04T13:05:58.019Z,37.25
2022-12-04T13:11:18.154Z,45.00
2022-12-04T13:16:51.798Z,30.25
2022-12-04T13:27:18.191Z,21.75
2022-12-04T13:32:52.788Z,25.33
2022-12-04T13:38:18.930Z,27.75
2022-12-04T13:43:38.237Z,28.67
2022-12-04T13:48:45.497Z,24.67
2022-12-04T13:54:02.405Z,35.25
2022-12-04T13:59:24.765Z,22.67
2022-12-04T14:04:36.125Z,35.00
2022-12-04T14:09:54.860Z,25.75
2022-12-04T14:15:10.965Z,23.67
2022-12-04T14:20:34.884Z,33.00
2022-12-04T14:25:49.285Z,38.75
2022-12-04T14:31:16.951Z,36.67
2022-12-04T14:36:42.276Z,33.25
2022-12-04T14:41:48.528Z,42.00
2022-12-04T14:47:09.585Z,36.00
2022-12-04T14:52:35.624Z,31.33
2022-12-04T14:58:30.089Z,39.67
2022-12-04T15:03:46.927Z,44.00
2022-12-04T15:09:19.164Z,30.00
2022-12-04T15:14:24.617Z,36.67
2022-12-04T15:19:30.121Z,28.50
2022-12-04T15:24:35.669Z,46.00
2022-12-04T15:29:51.723Z,49.25
2022-12-04T15:35:05.098Z,50.00
2022-12-04T15:40:13.425Z,164.00
2022-12-04T15:45:24.480Z,141.00
2022-12-04T15:50:32.733Z,49.33
2022-12-04T15:56:04.822Z,48.25
2022-12-04T16:01:17.143Z,50.00
2022-12-04T16:06:30.518Z,50.00
2022-12-04T16:11:40.120Z,50.00
2022-12-04T16:16:51.500Z,39.50
2022-12-04T16:21:58.434Z,77.75
2022-12-04T16:27:04.897Z,97.75
2022-12-04T16:32:19.576Z,50.00
2022-12-04T16:37:26.086Z,50.00
2022-12-04T16:42:33.004Z,39.00
2022-12-04T16:47:38.543Z,30.33
2022-12-04T16:52:43.847Z,37.00
2022-12-04T17:02:55.239Z,28.50
2022-12-04T17:08:03.439Z,19.00
2022-12-04T17:13:09.435Z,118.50
2022-12-04T17:18:20.752Z,50.00
2022-12-04T17:23:27.157Z,31.25
2022-12-04T17:28:33.365Z,33.50
2022-12-04T17:38:47.301Z,8.00
2022-12-04T17:43:53.071Z,18.00
2022-12-04T17:49:03.942Z,25.00
2022-12-04T17:54:13.682Z,20.00
2022-12-04T17:59:19.139Z,67.25
2022-12-04T18:04:24.523Z,30.00
2022-12-04T18:09:29.798Z,26.50
2022-12-04T18:19:42.824Z,86.75
2022-12-04T18:24:47.882Z,50.00
2022-12-04T18:29:53.115Z,34.00
2022-12-04T18:34:58.305Z,35.00
2022-12-04T18:40:06.509Z,33.25
2022-12-04T18:45:13.384Z,24.67
2022-12-04T18:50:18.794Z,21.50
2022-12-04T18:55:23.905Z,28.67
2022-12-04T19:00:28.936Z,26.33
2022-12-04T19:05:34.747Z,26.00
2022-12-04T19:10:39.927Z,25.00
2022-12-04T19:15:47.650Z,24.00
2022-12-04T19:20:54.186Z,22.75
2022-12-04T19:26:01.360Z,32.00
2022-12-04T19:31:06.446Z,27.75
2022-12-04T19:36:13.457Z,29.75
2022-12-04T19:41:22.727Z,22.00
2022-12-04T19:46:31.644Z,26.50
2022-12-04T19:51:39.846Z,26.00
2022-12-04T19:56:47.580Z,19.50
2022-12-04T20:01:52.768Z,16.75
2022-12-04T20:06:57.878Z,22.25
2022-12-04T20:12:02.879Z,18.00
2022-12-04T20:17:07.833Z,14.00
2022-12-04T20:22:13.624Z,26.50
2022-12-04T20:27:18.612Z,20.67
2022-12-04T20:32:23.656Z,16.00
2022-12-04T20:37:28.652Z,17.67
2022-12-04T20:42:34.709Z,14.33
2022-12-04T20:47:41.943Z,17.67
2022-12-04T20:52:47.607Z,17.00
2022-12-04T20:57:53.169Z,42.00
2022-12-04T21:02:58.231Z,35.25
2022-12-04T21:08:03.275Z,24.75
2022-12-04T21:13:26.432Z,27.67
2022-12-04T21:18:31.425Z,22.33
2022-12-04T21:23:37.223Z,29.67
2022-12-04T21:28:43.258Z,14.33
2022-12-04T21:33:48.345Z,17.67
2022-12-04T21:38:54.051Z,17.00
2022-12-04T21:43:59.010Z,13.00
2022-12-04T21:49:04.143Z,12.00
2022-12-04T21:54:09.287Z,14.67
2022-12-04T21:59:14.474Z,20.00
2022-12-04T22:04:19.813Z,17.75
2022-12-04T22:09:24.832Z,16.33
2022-12-04T22:14:29.933Z,20.00
2022-12-04T22:19:35.366Z,20.00
2022-12-04T22:24:40.291Z,16.00
2022-12-04T22:29:52.278Z,16.75
2022-12-04T22:34:57.336Z,19.00
2022-12-04T22:40:02.303Z,27.50
2022-12-04T22:45:07.630Z,21.00
2022-12-04T22:50:13.606Z,26.00
2022-12-04T22:55:18.634Z,22.75
2022-12-04T23:00:23.786Z,20.50
2022-12-04T23:05:28.802Z,36.00
2022-12-04T23:10:33.942Z,30.67
2022-12-04T23:15:41.292Z,25.33
2022-12-04T23:20:46.174Z,25.00
2022-12-04T23:25:51.249Z,18.50
2022-12-04T23:30:56.242Z,25.00
2022-12-04T23:36:03.772Z,24.00
2022-12-04T23:41:20.971Z,27.67
2022-12-04T23:46:33.511Z,21.33
2022-12-04T23:51:38.705Z,29.00
